Terminal Aerodrome Forecast
Issued by NWS Binghamton, NY

Home | Current Version | Previous Version | Text Only | Print | Product List | Glossary On
Versions: 1 2 3 4 5 6 7 8 9 10 11 12 13 14 15 16 17
000
FTUS41 KBGM 280800 AAA
TAFSYR
TAF AMD
KSYR 280859Z 2809/2906 04008KT P6SM -SHRA OVC040
     FM281200 02007KT 5SM -SHRA BR OVC015
     FM281700 34012KT P6SM -SHRA OVC025
     FM290000 30008KT P6SM -SHRA OVC025=

USA.gov is the U.S. government's official web portal to all federal, state and local government web resources and services.